sensor_id;sensor_type;location;lat;lon;timestamp;P1;durP1;ratioP1;P2;durP2;ratioP2
12271;SDS011;6198;51.446;6.698;2022-11-15T00:00:06;11.60;;;9.67;;
12271;SDS011;6198;51.446;6.698;2022-11-15T00:02:32;11.80;;;9.83;;
12271;SDS011;6198;51.446;6.698;2022-11-15T00:04:58;11.23;;;10.03;;
12271;SDS011;6198;51.446;6.698;2022-11-15T00:07:24;13.33;;;10.70;;
12271;SDS011;6198;51.446;6.698;2022-11-15T00:09:49;13.23;;;9.60;;
12271;SDS011;6198;51.446;6.698;2022-11-15T00:12:15;11.87;;;10.03;;
12271;SDS011;6198;51.446;6.698;2022-11-15T00:14:41;10.67;;;9.57;;
12271;SDS011;6198;51.446;6.698;2022-11-15T00:17:07;11.97;;;9.70;;
12271;SDS011;6198;51.446;6.698;2022-11-15T00:19:33;12.00;;;9.63;;
12271;SDS011;6198;51.446;6.698;2022-11-15T00:21:59;12.47;;;10.37;;
12271;SDS011;6198;51.446;6.698;2022-11-15T00:24:25;12.67;;;9.80;;
12271;SDS011;6198;51.446;6.698;2022-11-15T00:26:51;12.23;;;10.00;;
12271;SDS011;6198;51.446;6.698;2022-11-15T00:29:17;13.47;;;10.17;;
12271;SDS011;6198;51.446;6.698;2022-11-15T00:31:43;11.23;;;10.03;;
12271;SDS011;6198;51.446;6.698;2022-11-15T00:34:09;11.77;;;9.93;;
12271;SDS011;6198;51.446;6.698;2022-11-15T00:36:35;12.87;;;10.50;;
12271;SDS011;6198;51.446;6.698;2022-11-15T00:39:03;11.20;;;9.57;;
12271;SDS011;6198;51.446;6.698;2022-11-15T00:41:30;12.27;;;9.53;;
12271;SDS011;6198;51.446;6.698;2022-11-15T00:43:56;13.93;;;10.23;;
12271;SDS011;6198;51.446;6.698;2022-11-15T00:46:22;13.80;;;10.73;;
12271;SDS011;6198;51.446;6.698;2022-11-15T00:48:48;13.73;;;10.23;;
12271;SDS011;6198;51.446;6.698;2022-11-15T00:51:14;11.27;;;9.67;;
12271;SDS011;6198;51.446;6.698;2022-11-15T00:53:40;13.37;;;10.37;;
12271;SDS011;6198;51.446;6.698;2022-11-15T00:56:06;12.53;;;10.00;;
12271;SDS011;6198;51.446;6.698;2022-11-15T00:58:32;14.03;;;10.27;;
12271;SDS011;6198;51.446;6.698;2022-11-15T01:01:08;12.60;;;9.83;;
12271;SDS011;6198;51.446;6.698;2022-11-15T01:03:35;18.33;;;10.67;;
12271;SDS011;6198;51.446;6.698;2022-11-15T01:06:01;13.00;;;10.20;;
12271;SDS011;6198;51.446;6.698;2022-11-15T01:08:27;11.30;;;9.37;;
12271;SDS011;6198;51.446;6.698;2022-11-15T01:10:53;14.13;;;10.67;;
12271;SDS011;6198;51.446;6.698;2022-11-15T01:13:19;11.77;;;9.90;;
12271;SDS011;6198;51.446;6.698;2022-11-15T01:15:45;15.03;;;10.43;;
12271;SDS011;6198;51.446;6.698;2022-11-15T01:18:11;14.63;;;9.70;;
12271;SDS011;6198;51.446;6.698;2022-11-15T01:20:40;13.63;;;10.10;;
12271;SDS011;6198;51.446;6.698;2022-11-15T01:23:07;15.83;;;10.13;;
12271;SDS011;6198;51.446;6.698;2022-11-15T01:25:33;13.13;;;9.70;;
12271;SDS011;6198;51.446;6.698;2022-11-15T01:27:59;12.23;;;9.47;;
12271;SDS011;6198;51.446;6.698;2022-11-15T01:30:25;12.77;;;10.23;;
12271;SDS011;6198;51.446;6.698;2022-11-15T01:32:50;11.00;;;9.50;;
12271;SDS011;6198;51.446;6.698;2022-11-15T01:35:16;11.40;;;9.33;;
12271;SDS011;6198;51.446;6.698;2022-11-15T01:37:42;13.10;;;10.27;;
12271;SDS011;6198;51.446;6.698;2022-11-15T01:40:08;18.90;;;9.90;;
12271;SDS011;6198;51.446;6.698;2022-11-15T01:42:34;13.03;;;9.97;;
12271;SDS011;6198;51.446;6.698;2022-11-15T01:45:00;13.70;;;10.07;;
12271;SDS011;6198;51.446;6.698;2022-11-15T01:47:31;12.63;;;9.47;;
12271;SDS011;6198;51.446;6.698;2022-11-15T01:50:06;17.23;;;10.97;;
12271;SDS011;6198;51.446;6.698;2022-11-15T01:52:33;11.53;;;9.47;;
12271;SDS011;6198;51.446;6.698;2022-11-15T01:55:05;14.30;;;10.27;;
12271;SDS011;6198;51.446;6.698;2022-11-15T01:57:32;13.80;;;9.90;;
12271;SDS011;6198;51.446;6.698;2022-11-15T01:59:59;13.20;;;9.63;;
12271;SDS011;6198;51.446;6.698;2022-11-15T02:02:26;10.87;;;9.37;;
12271;SDS011;6198;51.446;6.698;2022-11-15T02:04:52;11.53;;;8.90;;
12271;SDS011;6198;51.446;6.698;2022-11-15T02:07:18;14.27;;;9.70;;
12271;SDS011;6198;51.446;6.698;2022-11-15T02:09:45;10.90;;;9.20;;
12271;SDS011;6198;51.446;6.698;2022-11-15T02:12:11;11.63;;;9.37;;
12271;SDS011;6198;51.446;6.698;2022-11-15T02:14:39;13.63;;;9.37;;
12271;SDS011;6198;51.446;6.698;2022-11-15T02:19:41;12.07;;;9.50;;
12271;SDS011;6198;51.446;6.698;2022-11-15T02:22:28;11.07;;;9.30;;
12271;SDS011;6198;51.446;6.698;2022-11-15T02:32:32;14.80;;;9.60;;
12271;SDS011;6198;51.446;6.698;2022-11-15T02:37:51;13.30;;;9.07;;
12271;SDS011;6198;51.446;6.698;2022-11-15T02:40:27;13.67;;;9.47;;
12271;SDS011;6198;51.446;6.698;2022-11-15T02:42:57;10.77;;;8.73;;
12271;SDS011;6198;51.446;6.698;2022-11-15T02:45:46;10.90;;;9.13;;
12271;SDS011;6198;51.446;6.698;2022-11-15T02:48:13;11.37;;;9.00;;
12271;SDS011;6198;51.446;6.698;2022-11-15T02:50:41;11.17;;;8.53;;
12271;SDS011;6198;51.446;6.698;2022-11-15T02:53:08;13.27;;;9.00;;
12271;SDS011;6198;51.446;6.698;2022-11-15T02:55:35;15.53;;;9.20;;
12271;SDS011;6198;51.446;6.698;2022-11-15T03:00:35;12.47;;;9.27;;
12271;SDS011;6198;51.446;6.698;2022-11-15T03:05:48;14.03;;;8.57;;
12271;SDS011;6198;51.446;6.698;2022-11-15T03:15:38;12.87;;;9.30;;
12271;SDS011;6198;51.446;6.698;2022-11-15T03:21:02;10.23;;;9.10;;
12271;SDS011;6198;51.446;6.698;2022-11-15T03:23:30;10.90;;;8.70;;
12271;SDS011;6198;51.446;6.698;2022-11-15T03:25:56;13.03;;;8.93;;
12271;SDS011;6198;51.446;6.698;2022-11-15T03:28:25;11.67;;;8.97;;
12271;SDS011;6198;51.446;6.698;2022-11-15T03:30:53;11.90;;;8.93;;
12271;SDS011;6198;51.446;6.698;2022-11-15T03:33:21;11.13;;;8.50;;
12271;SDS011;6198;51.446;6.698;2022-11-15T03:35:47;13.77;;;9.50;;
12271;SDS011;6198;51.446;6.698;2022-11-15T03:40:40;11.03;;;9.33;;
12271;SDS011;6198;51.446;6.698;2022-11-15T03:48:40;11.40;;;9.30;;
12271;SDS011;6198;51.446;6.698;2022-11-15T03:51:07;14.00;;;10.43;;
12271;SDS011;6198;51.446;6.698;2022-11-15T03:53:32;13.20;;;10.20;;
12271;SDS011;6198;51.446;6.698;2022-11-15T03:55:58;13.60;;;10.50;;
12271;SDS011;6198;51.446;6.698;2022-11-15T03:58:24;12.73;;;9.23;;
12271;SDS011;6198;51.446;6.698;2022-11-15T04:00:50;10.13;;;8.97;;
12271;SDS011;6198;51.446;6.698;2022-11-15T04:03:16;10.47;;;9.37;;
12271;SDS011;6198;51.446;6.698;2022-11-15T04:05:42;15.50;;;9.97;;
12271;SDS011;6198;51.446;6.698;2022-11-15T04:08:08;14.20;;;9.20;;
12271;SDS011;6198;51.446;6.698;2022-11-15T04:10:34;12.70;;;9.57;;
12271;SDS011;6198;51.446;6.698;2022-11-15T04:13:01;11.63;;;9.07;;
12271;SDS011;6198;51.446;6.698;2022-11-15T04:15:27;12.43;;;9.57;;
12271;SDS011;6198;51.446;6.698;2022-11-15T04:17:55;11.90;;;9.23;;
12271;SDS011;6198;51.446;6.698;2022-11-15T04:20:28;10.43;;;9.20;;
12271;SDS011;6198;51.446;6.698;2022-11-15T04:23:30;10.23;;;8.73;;
12271;SDS011;6198;51.446;6.698;2022-11-15T04:26:16;11.87;;;9.20;;
12271;SDS011;6198;51.446;6.698;2022-11-15T04:28:42;10.70;;;9.33;;
12271;SDS011;6198;51.446;6.698;2022-11-15T04:31:27;13.27;;;9.13;;
12271;SDS011;6198;51.446;6.698;2022-11-15T04:33:53;11.23;;;9.37;;
12271;SDS011;6198;51.446;6.698;2022-11-15T04:36:20;10.17;;;8.37;;
12271;SDS011;6198;51.446;6.698;2022-11-15T04:39:05;13.07;;;9.00;;
12271;SDS011;6198;51.446;6.698;2022-11-15T04:41:31;12.00;;;9.17;;
12271;SDS011;6198;51.446;6.698;2022-11-15T04:43:57;9.70;;;8.10;;
12271;SDS011;6198;51.446;6.698;2022-11-15T04:46:23;11.23;;;8.40;;
12271;SDS011;6198;51.446;6.698;2022-11-15T04:48:50;12.43;;;8.53;;
12271;SDS011;6198;51.446;6.698;2022-11-15T04:51:16;10.73;;;7.97;;
12271;SDS011;6198;51.446;6.698;2022-11-15T04:53:42;8.93;;;8.03;;
12271;SDS011;6198;51.446;6.698;2022-11-15T04:56:08;10.20;;;7.87;;
12271;SDS011;6198;51.446;6.698;2022-11-15T04:58:34;11.80;;;8.53;;
12271;SDS011;6198;51.446;6.698;2022-11-15T05:01:10;13.53;;;8.27;;
12271;SDS011;6198;51.446;6.698;2022-11-15T05:03:36;9.57;;;7.93;;
12271;SDS011;6198;51.446;6.698;2022-11-15T05:06:21;8.63;;;7.63;;
12271;SDS011;6198;51.446;6.698;2022-11-15T05:08:47;10.90;;;8.33;;
12271;SDS011;6198;51.446;6.698;2022-11-15T05:11:13;11.60;;;8.20;;
12271;SDS011;6198;51.446;6.698;2022-11-15T05:13:39;11.13;;;8.50;;
12271;SDS011;6198;51.446;6.698;2022-11-15T05:16:05;11.37;;;8.10;;
12271;SDS011;6198;51.446;6.698;2022-11-15T05:18:31;11.80;;;8.40;;
12271;SDS011;6198;51.446;6.698;2022-11-15T05:21:03;8.90;;;7.23;;
12271;SDS011;6198;51.446;6.698;2022-11-15T05:23:29;10.93;;;7.73;;
12271;SDS011;6198;51.446;6.698;2022-11-15T05:25:58;8.10;;;7.30;;
12271;SDS011;6198;51.446;6.698;2022-11-15T05:28:24;8.33;;;7.20;;
12271;SDS011;6198;51.446;6.698;2022-11-15T05:30:50;9.13;;;7.30;;
12271;SDS011;6198;51.446;6.698;2022-11-15T05:33:16;9.40;;;7.40;;
12271;SDS011;6198;51.446;6.698;2022-11-15T05:35:43;8.63;;;7.73;;
12271;SDS011;6198;51.446;6.698;2022-11-15T05:38:12;8.23;;;7.33;;
12271;SDS011;6198;51.446;6.698;2022-11-15T05:40:38;10.00;;;6.83;;
12271;SDS011;6198;51.446;6.698;2022-11-15T05:43:04;10.57;;;8.97;;
12271;SDS011;6198;51.446;6.698;2022-11-15T05:45:31;9.07;;;7.83;;
12271;SDS011;6198;51.446;6.698;2022-11-15T05:47:58;11.23;;;8.80;;
12271;SDS011;6198;51.446;6.698;2022-11-15T05:50:25;11.47;;;8.80;;
12271;SDS011;6198;51.446;6.698;2022-11-15T05:52:51;10.00;;;8.50;;
12271;SDS011;6198;51.446;6.698;2022-11-15T05:55:17;10.13;;;8.87;;
12271;SDS011;6198;51.446;6.698;2022-11-15T05:57:44;12.27;;;8.30;;
12271;SDS011;6198;51.446;6.698;2022-11-15T06:00:10;14.53;;;11.17;;
12271;SDS011;6198;51.446;6.698;2022-11-15T06:02:36;11.00;;;9.90;;
12271;SDS011;6198;51.446;6.698;2022-11-15T06:05:02;10.23;;;8.77;;
12271;SDS011;6198;51.446;6.698;2022-11-15T06:07:29;11.03;;;8.20;;
12271;SDS011;6198;51.446;6.698;2022-11-15T06:09:55;12.20;;;9.13;;
12271;SDS011;6198;51.446;6.698;2022-11-15T06:12:21;8.47;;;7.63;;
12271;SDS011;6198;51.446;6.698;2022-11-15T06:14:47;12.43;;;8.30;;
12271;SDS011;6198;51.446;6.698;2022-11-15T06:17:13;9.67;;;8.50;;
12271;SDS011;6198;51.446;6.698;2022-11-15T06:19:39;9.80;;;8.23;;
12271;SDS011;6198;51.446;6.698;2022-11-15T06:22:05;9.53;;;8.37;;
12271;SDS011;6198;51.446;6.698;2022-11-15T06:24:31;9.87;;;8.30;;
12271;SDS011;6198;51.446;6.698;2022-11-15T06:26:57;9.87;;;8.30;;
12271;SDS011;6198;51.446;6.698;2022-11-15T06:29:23;9.80;;;8.20;;
12271;SDS011;6198;51.446;6.698;2022-11-15T06:31:50;9.70;;;8.33;;
12271;SDS011;6198;51.446;6.698;2022-11-15T06:34:16;9.60;;;8.30;;
12271;SDS011;6198;51.446;6.698;2022-11-15T06:36:42;10.73;;;8.17;;
12271;SDS011;6198;51.446;6.698;2022-11-15T06:39:08;9.70;;;8.30;;
12271;SDS011;6198;51.446;6.698;2022-11-15T06:41:34;8.60;;;7.70;;
12271;SDS011;6198;51.446;6.698;2022-11-15T06:44:00;8.97;;;7.53;;
12271;SDS011;6198;51.446;6.698;2022-11-15T06:46:26;8.17;;;7.37;;
12271;SDS011;6198;51.446;6.698;2022-11-15T06:48:53;9.03;;;7.70;;
12271;SDS011;6198;51.446;6.698;2022-11-15T06:51:19;9.17;;;7.73;;
12271;SDS011;6198;51.446;6.698;2022-11-15T06:53:45;8.33;;;7.37;;
12271;SDS011;6198;51.446;6.698;2022-11-15T06:56:11;9.87;;;7.57;;
12271;SDS011;6198;51.446;6.698;2022-11-15T06:58:37;11.07;;;7.33;;
12271;SDS011;6198;51.446;6.698;2022-11-15T07:01:04;8.97;;;7.00;;
12271;SDS011;6198;51.446;6.698;2022-11-15T07:03:30;8.70;;;7.03;;
12271;SDS011;6198;51.446;6.698;2022-11-15T07:05:56;8.37;;;6.70;;
12271;SDS011;6198;51.446;6.698;2022-11-15T07:08:23;7.90;;;7.03;;
12271;SDS011;6198;51.446;6.698;2022-11-15T07:10:49;7.20;;;6.50;;
12271;SDS011;6198;51.446;6.698;2022-11-15T07:13:15;8.23;;;6.87;;
12271;SDS011;6198;51.446;6.698;2022-11-15T07:15:41;8.27;;;6.70;;
12271;SDS011;6198;51.446;6.698;2022-11-15T07:18:07;7.43;;;6.50;;
12271;SDS011;6198;51.446;6.698;2022-11-15T07:20:33;6.50;;;5.50;;
12271;SDS011;6198;51.446;6.698;2022-11-15T07:23:03;7.33;;;5.80;;
12271;SDS011;6198;51.446;6.698;2022-11-15T07:25:29;6.10;;;5.47;;
12271;SDS011;6198;51.446;6.698;2022-11-15T07:27:56;7.20;;;5.73;;
12271;SDS011;6198;51.446;6.698;2022-11-15T07:30:22;9.07;;;5.93;;
12271;SDS011;6198;51.446;6.698;2022-11-15T07:32:52;7.87;;;5.87;;
12271;SDS011;6198;51.446;6.698;2022-11-15T07:35:18;7.03;;;5.70;;
12271;SDS011;6198;51.446;6.698;2022-11-15T07:37:44;9.33;;;5.43;;
12271;SDS011;6198;51.446;6.698;2022-11-15T07:40:18;7.67;;;5.43;;
12271;SDS011;6198;51.446;6.698;2022-11-15T07:42:44;8.70;;;5.07;;
12271;SDS011;6198;51.446;6.698;2022-11-15T07:45:19;6.07;;;5.13;;
12271;SDS011;6198;51.446;6.698;2022-11-15T07:47:46;5.57;;;3.73;;
12271;SDS011;6198;51.446;6.698;2022-11-15T07:50:12;4.77;;;3.27;;
12271;SDS011;6198;51.446;6.698;2022-11-15T07:52:38;9.03;;;3.90;;
12271;SDS011;6198;51.446;6.698;2022-11-15T07:55:04;6.33;;;3.97;;
12271;SDS011;6198;51.446;6.698;2022-11-15T07:57:30;4.47;;;3.30;;
12271;SDS011;6198;51.446;6.698;2022-11-15T07:59:56;4.37;;;2.43;;
12271;SDS011;6198;51.446;6.698;2022-11-15T08:02:22;2.70;;;2.17;;
12271;SDS011;6198;51.446;6.698;2022-11-15T08:04:48;3.23;;;2.10;;
12271;SDS011;6198;51.446;6.698;2022-11-15T08:07:14;3.13;;;2.37;;
12271;SDS011;6198;51.446;6.698;2022-11-15T08:09:40;4.10;;;2.40;;
12271;SDS011;6198;51.446;6.698;2022-11-15T08:12:06;3.90;;;2.40;;
12271;SDS011;6198;51.446;6.698;2022-11-15T08:14:32;4.70;;;2.70;;
12271;SDS011;6198;51.446;6.698;2022-11-15T08:16:58;5.60;;;2.23;;
12271;SDS011;6198;51.446;6.698;2022-11-15T08:19:24;7.67;;;2.40;;
12271;SDS011;6198;51.446;6.698;2022-11-15T08:21:50;3.73;;;2.30;;
12271;SDS011;6198;51.446;6.698;2022-11-15T08:24:16;3.70;;;1.97;;
12271;SDS011;6198;51.446;6.698;2022-11-15T08:26:42;3.93;;;2.03;;
12271;SDS011;6198;51.446;6.698;2022-11-15T08:29:08;3.50;;;2.00;;
12271;SDS011;6198;51.446;6.698;2022-11-15T08:31:34;2.87;;;2.20;;
12271;SDS011;6198;51.446;6.698;2022-11-15T08:34:01;4.93;;;2.20;;
12271;SDS011;6198;51.446;6.698;2022-11-15T08:36:27;4.90;;;2.87;;
12271;SDS011;6198;51.446;6.698;2022-11-15T08:38:53;6.80;;;3.03;;
12271;SDS011;6198;51.446;6.698;2022-11-15T08:41:23;6.13;;;2.57;;
12271;SDS011;6198;51.446;6.698;2022-11-15T08:43:50;5.07;;;3.07;;
12271;SDS011;6198;51.446;6.698;2022-11-15T08:46:16;5.27;;;3.30;;
12271;SDS011;6198;51.446;6.698;2022-11-15T08:48:43;5.67;;;3.27;;
12271;SDS011;6198;51.446;6.698;2022-11-15T08:51:09;8.57;;;4.20;;
12271;SDS011;6198;51.446;6.698;2022-11-15T08:53:35;10.27;;;4.30;;
12271;SDS011;6198;51.446;6.698;2022-11-15T08:56:01;7.27;;;3.63;;
12271;SDS011;6198;51.446;6.698;2022-11-15T08:58:27;8.40;;;3.80;;
12271;SDS011;6198;51.446;6.698;2022-11-15T09:00:53;5.90;;;3.80;;
12271;SDS011;6198;51.446;6.698;2022-11-15T09:03:19;6.70;;;3.37;;
12271;SDS011;6198;51.446;6.698;2022-11-15T09:05:45;9.73;;;3.83;;
12271;SDS011;6198;51.446;6.698;2022-11-15T09:08:11;5.97;;;3.33;;
12271;SDS011;6198;51.446;6.698;2022-11-15T09:10:37;5.77;;;3.20;;
12271;SDS011;6198;51.446;6.698;2022-11-15T09:13:04;4.13;;;2.77;;
12271;SDS011;6198;51.446;6.698;2022-11-15T09:15:29;6.40;;;3.00;;
12271;SDS011;6198;51.446;6.698;2022-11-15T09:17:58;3.37;;;3.07;;
12271;SDS011;6198;51.446;6.698;2022-11-15T09:20:24;4.23;;;3.17;;
12271;SDS011;6198;51.446;6.698;2022-11-15T09:22:50;5.77;;;3.37;;
12271;SDS011;6198;51.446;6.698;2022-11-15T09:25:16;6.90;;;3.37;;
12271;SDS011;6198;51.446;6.698;2022-11-15T09:27:42;6.90;;;4.00;;
12271;SDS011;6198;51.446;6.698;2022-11-15T09:30:08;4.47;;;3.93;;
12271;SDS011;6198;51.446;6.698;2022-11-15T09:32:34;4.90;;;4.07;;
12271;SDS011;6198;51.446;6.698;2022-11-15T09:35:00;7.10;;;4.90;;
12271;SDS011;6198;51.446;6.698;2022-11-15T09:37:26;4.87;;;4.20;;
12271;SDS011;6198;51.446;6.698;2022-11-15T09:39:52;8.97;;;4.50;;
12271;SDS011;6198;51.446;6.698;2022-11-15T09:42:22;6.03;;;4.90;;
12271;SDS011;6198;51.446;6.698;2022-11-15T09:50:15;11.10;;;5.43;;
12271;SDS011;6198;51.446;6.698;2022-11-15T09:52:43;7.67;;;5.67;;
12271;SDS011;6198;51.446;6.698;2022-11-15T09:55:10;8.83;;;5.40;;
12271;SDS011;6198;51.446;6.698;2022-11-15T09:57:49;7.23;;;5.33;;
12271;SDS011;6198;51.446;6.698;2022-11-15T10:00:20;6.53;;;4.47;;
12271;SDS011;6198;51.446;6.698;2022-11-15T10:02:56;5.90;;;4.60;;
12271;SDS011;6198;51.446;6.698;2022-11-15T10:05:23;4.07;;;3.67;;
12271;SDS011;6198;51.446;6.698;2022-11-15T10:08:05;7.57;;;4.37;;
12271;SDS011;6198;51.446;6.698;2022-11-15T10:10:38;4.93;;;3.80;;
12271;SDS011;6198;51.446;6.698;2022-11-15T10:13:06;5.13;;;3.50;;
12271;SDS011;6198;51.446;6.698;2022-11-15T10:15:36;3.97;;;3.23;;
12271;SDS011;6198;51.446;6.698;2022-11-15T10:18:13;6.60;;;3.60;;
12271;SDS011;6198;51.446;6.698;2022-11-15T10:23:13;4.03;;;2.83;;
12271;SDS011;6198;51.446;6.698;2022-11-15T10:25:40;4.33;;;2.83;;
12271;SDS011;6198;51.446;6.698;2022-11-15T10:30:51;3.90;;;3.10;;
12271;SDS011;6198;51.446;6.698;2022-11-15T10:33:25;4.90;;;3.27;;
12271;SDS011;6198;51.446;6.698;2022-11-15T10:38:49;3.90;;;2.77;;
12271;SDS011;6198;51.446;6.698;2022-11-15T10:44:20;5.00;;;2.27;;
12271;SDS011;6198;51.446;6.698;2022-11-15T10:46:39;5.63;;;2.90;;
12271;SDS011;6198;51.446;6.698;2022-11-15T10:49:15;2.83;;;2.50;;
12271;SDS011;6198;51.446;6.698;2022-11-15T10:51:46;3.70;;;2.30;;
12271;SDS011;6198;51.446;6.698;2022-11-15T10:54:13;7.13;;;2.40;;
12271;SDS011;6198;51.446;6.698;2022-11-15T10:56:42;3.93;;;2.13;;
12271;SDS011;6198;51.446;6.698;2022-11-15T10:59:14;2.73;;;2.00;;
12271;SDS011;6198;51.446;6.698;2022-11-15T11:01:47;4.17;;;2.10;;
12271;SDS011;6198;51.446;6.698;2022-11-15T11:04:13;4.43;;;2.90;;
12271;SDS011;6198;51.446;6.698;2022-11-15T11:06:46;5.53;;;3.27;;
12271;SDS011;6198;51.446;6.698;2022-11-15T11:11:50;3.47;;;2.57;;
12271;SDS011;6198;51.446;6.698;2022-11-15T11:14:34;4.63;;;2.70;;
12271;SDS011;6198;51.446;6.698;2022-11-15T11:19:55;4.90;;;2.70;;
12271;SDS011;6198;51.446;6.698;2022-11-15T11:22:25;3.20;;;2.70;;
12271;SDS011;6198;51.446;6.698;2022-11-15T11:27:39;7.20;;;2.87;;
12271;SDS011;6198;51.446;6.698;2022-11-15T11:30:14;3.03;;;2.30;;
12271;SDS011;6198;51.446;6.698;2022-11-15T11:32:48;6.30;;;2.50;;
12271;SDS011;6198;51.446;6.698;2022-11-15T11:35:19;6.20;;;2.40;;
12271;SDS011;6198;51.446;6.698;2022-11-15T11:40:20;4.53;;;2.03;;
12271;SDS011;6198;51.446;6.698;2022-11-15T11:42:58;3.10;;;1.87;;
12271;SDS011;6198;51.446;6.698;2022-11-15T11:45:43;3.13;;;2.00;;
12271;SDS011;6198;51.446;6.698;2022-11-15T11:48:28;9.73;;;2.60;;
12271;SDS011;6198;51.446;6.698;2022-11-15T11:50:57;4.47;;;2.30;;
12271;SDS011;6198;51.446;6.698;2022-11-15T11:53:31;4.90;;;2.40;;
12271;SDS011;6198;51.446;6.698;2022-11-15T11:56:03;4.63;;;2.17;;
12271;SDS011;6198;51.446;6.698;2022-11-15T11:58:34;5.20;;;2.23;;
12271;SDS011;6198;51.446;6.698;2022-11-15T12:03:51;5.07;;;2.40;;
12271;SDS011;6198;51.446;6.698;2022-11-15T12:06:32;4.77;;;2.27;;
12271;SDS011;6198;51.446;6.698;2022-11-15T12:14:27;4.57;;;2.40;;
12271;SDS011;6198;51.446;6.698;2022-11-15T12:16:54;5.90;;;2.60;;
12271;SDS011;6198;51.446;6.698;2022-11-15T12:19:20;3.20;;;2.10;;
12271;SDS011;6198;51.446;6.698;2022-11-15T12:21:48;5.03;;;1.90;;
12271;SDS011;6198;51.446;6.698;2022-11-15T12:24:17;7.63;;;1.90;;
12271;SDS011;6198;51.446;6.698;2022-11-15T12:26:49;5.43;;;1.77;;
12271;SDS011;6198;51.446;6.698;2022-11-15T12:29:20;4.20;;;1.90;;
12271;SDS011;6198;51.446;6.698;2022-11-15T12:31:50;3.83;;;1.93;;
12271;SDS011;6198;51.446;6.698;2022-11-15T12:36:46;7.13;;;1.30;;
12271;SDS011;6198;51.446;6.698;2022-11-15T12:39:13;3.07;;;1.87;;
12271;SDS011;6198;51.446;6.698;2022-11-15T12:41:40;3.80;;;1.60;;
12271;SDS011;6198;51.446;6.698;2022-11-15T12:44:10;3.40;;;1.50;;
12271;SDS011;6198;51.446;6.698;2022-11-15T12:49:10;4.47;;;1.60;;
12271;SDS011;6198;51.446;6.698;2022-11-15T13:02:17;4.63;;;1.60;;
12271;SDS011;6198;51.446;6.698;2022-11-15T13:04:43;4.47;;;1.70;;
12271;SDS011;6198;51.446;6.698;2022-11-15T13:07:09;2.77;;;1.30;;
12271;SDS011;6198;51.446;6.698;2022-11-15T13:09:55;3.87;;;1.43;;
12271;SDS011;6198;51.446;6.698;2022-11-15T13:14:57;2.57;;;1.40;;
12271;SDS011;6198;51.446;6.698;2022-11-15T13:17:37;4.07;;;1.80;;
12271;SDS011;6198;51.446;6.698;2022-11-15T13:22:39;10.10;;;1.77;;
12271;SDS011;6198;51.446;6.698;2022-11-15T13:27:47;4.47;;;2.07;;
12271;SDS011;6198;51.446;6.698;2022-11-15T13:30:16;3.97;;;1.63;;
12271;SDS011;6198;51.446;6.698;2022-11-15T13:32:44;3.43;;;1.60;;
12271;SDS011;6198;51.446;6.698;2022-11-15T13:35:17;3.40;;;1.80;;
12271;SDS011;6198;51.446;6.698;2022-11-15T13:37:44;2.80;;;1.53;;
12271;SDS011;6198;51.446;6.698;2022-11-15T13:40:22;3.13;;;1.70;;
12271;SDS011;6198;51.446;6.698;2022-11-15T13:42:49;3.17;;;1.70;;
12271;SDS011;6198;51.446;6.698;2022-11-15T13:45:16;6.00;;;1.90;;
12271;SDS011;6198;51.446;6.698;2022-11-15T13:47:42;2.60;;;1.60;;
12271;SDS011;6198;51.446;6.698;2022-11-15T13:50:12;4.27;;;1.70;;
12271;SDS011;6198;51.446;6.698;2022-11-15T13:52:39;4.13;;;2.13;;
12271;SDS011;6198;51.446;6.698;2022-11-15T13:55:18;6.63;;;1.70;;
12271;SDS011;6198;51.446;6.698;2022-11-15T13:57:47;3.67;;;1.83;;
12271;SDS011;6198;51.446;6.698;2022-11-15T14:02:49;11.37;;;1.97;;
12271;SDS011;6198;51.446;6.698;2022-11-15T14:05:18;3.13;;;1.57;;
12271;SDS011;6198;51.446;6.698;2022-11-15T14:07:54;5.23;;;1.97;;
12271;SDS011;6198;51.446;6.698;2022-11-15T14:10:28;2.23;;;1.80;;
12271;SDS011;6198;51.446;6.698;2022-11-15T14:12:55;2.97;;;1.50;;
12271;SDS011;6198;51.446;6.698;2022-11-15T14:17:50;3.87;;;1.63;;
12271;SDS011;6198;51.446;6.698;2022-11-15T14:23:02;6.50;;;1.60;;
12271;SDS011;6198;51.446;6.698;2022-11-15T14:25:33;6.00;;;1.60;;
12271;SDS011;6198;51.446;6.698;2022-11-15T14:30:35;4.53;;;1.80;;
12271;SDS011;6198;51.446;6.698;2022-11-15T14:33:01;2.90;;;1.70;;
12271;SDS011;6198;51.446;6.698;2022-11-15T14:35:27;5.70;;;1.50;;
12271;SDS011;6198;51.446;6.698;2022-11-15T14:37:54;6.43;;;1.70;;
12271;SDS011;6198;51.446;6.698;2022-11-15T14:40:21;4.60;;;2.00;;
12271;SDS011;6198;51.446;6.698;2022-11-15T14:42:48;2.47;;;1.50;;
12271;SDS011;6198;51.446;6.698;2022-11-15T14:45:15;3.83;;;1.60;;
12271;SDS011;6198;51.446;6.698;2022-11-15T14:47:41;4.57;;;1.70;;
12271;SDS011;6198;51.446;6.698;2022-11-15T14:50:11;5.83;;;1.97;;
12271;SDS011;6198;51.446;6.698;2022-11-15T14:52:37;5.00;;;2.33;;
12271;SDS011;6198;51.446;6.698;2022-11-15T14:55:09;20.97;;;15.53;;
12271;SDS011;6198;51.446;6.698;2022-11-15T14:57:35;3.57;;;2.87;;
12271;SDS011;6198;51.446;6.698;2022-11-15T15:00:01;3.30;;;2.50;;
12271;SDS011;6198;51.446;6.698;2022-11-15T15:02:28;5.53;;;2.00;;
12271;SDS011;6198;51.446;6.698;2022-11-15T15:04:54;5.13;;;2.30;;
12271;SDS011;6198;51.446;6.698;2022-11-15T15:07:20;3.87;;;2.20;;
12271;SDS011;6198;51.446;6.698;2022-11-15T15:09:46;4.50;;;2.20;;
12271;SDS011;6198;51.446;6.698;2022-11-15T15:12:19;5.20;;;2.40;;
12271;SDS011;6198;51.446;6.698;2022-11-15T15:14:46;2.67;;;1.90;;
12271;SDS011;6198;51.446;6.698;2022-11-15T15:17:13;3.73;;;2.20;;
12271;SDS011;6198;51.446;6.698;2022-11-15T15:19:39;3.67;;;2.10;;
12271;SDS011;6198;51.446;6.698;2022-11-15T15:22:05;4.83;;;2.67;;
12271;SDS011;6198;51.446;6.698;2022-11-15T15:24:31;5.83;;;2.30;;
12271;SDS011;6198;51.446;6.698;2022-11-15T15:26:57;4.93;;;2.40;;
12271;SDS011;6198;51.446;6.698;2022-11-15T15:29:23;3.43;;;2.23;;
12271;SDS011;6198;51.446;6.698;2022-11-15T15:31:49;4.27;;;3.10;;
12271;SDS011;6198;51.446;6.698;2022-11-15T15:34:15;6.67;;;3.33;;
12271;SDS011;6198;51.446;6.698;2022-11-15T15:36:41;6.50;;;3.30;;
12271;SDS011;6198;51.446;6.698;2022-11-15T15:39:08;6.67;;;4.00;;
12271;SDS011;6198;51.446;6.698;2022-11-15T15:41:36;6.13;;;4.70;;
12271;SDS011;6198;51.446;6.698;2022-11-15T15:44:02;5.27;;;4.20;;
12271;SDS011;6198;51.446;6.698;2022-11-15T15:46:28;8.07;;;4.40;;
12271;SDS011;6198;51.446;6.698;2022-11-15T15:48:54;5.80;;;4.07;;
12271;SDS011;6198;51.446;6.698;2022-11-15T15:51:20;6.20;;;3.60;;
12271;SDS011;6198;51.446;6.698;2022-11-15T15:53:46;3.60;;;3.13;;
12271;SDS011;6198;51.446;6.698;2022-11-15T15:56:13;4.00;;;2.57;;
12271;SDS011;6198;51.446;6.698;2022-11-15T15:58:39;3.17;;;2.83;;
12271;SDS011;6198;51.446;6.698;2022-11-15T16:01:05;5.23;;;2.77;;
12271;SDS011;6198;51.446;6.698;2022-11-15T16:03:31;8.03;;;5.63;;
12271;SDS011;6198;51.446;6.698;2022-11-15T16:05:57;6.33;;;4.03;;
12271;SDS011;6198;51.446;6.698;2022-11-15T16:08:24;5.70;;;2.90;;
12271;SDS011;6198;51.446;6.698;2022-11-15T16:10:52;3.10;;;2.80;;
12271;SDS011;6198;51.446;6.698;2022-11-15T16:13:18;6.87;;;3.10;;
12271;SDS011;6198;51.446;6.698;2022-11-15T16:15:44;6.27;;;3.50;;
12271;SDS011;6198;51.446;6.698;2022-11-15T16:18:14;3.63;;;2.40;;
12271;SDS011;6198;51.446;6.698;2022-11-15T16:20:45;6.03;;;2.73;;
12271;SDS011;6198;51.446;6.698;2022-11-15T16:23:13;6.97;;;3.03;;
12271;SDS011;6198;51.446;6.698;2022-11-15T16:25:52;9.47;;;5.50;;
12271;SDS011;6198;51.446;6.698;2022-11-15T16:28:21;41.17;;;32.73;;
12271;SDS011;6198;51.446;6.698;2022-11-15T16:30:48;6.73;;;5.23;;
12271;SDS011;6198;51.446;6.698;2022-11-15T16:33:14;6.30;;;5.47;;
12271;SDS011;6198;51.446;6.698;2022-11-15T16:35:42;10.33;;;8.40;;
12271;SDS011;6198;51.446;6.698;2022-11-15T16:38:12;6.53;;;5.53;;
12271;SDS011;6198;51.446;6.698;2022-11-15T16:40:39;7.77;;;3.80;;
12271;SDS011;6198;51.446;6.698;2022-11-15T16:43:05;3.70;;;2.77;;
12271;SDS011;6198;51.446;6.698;2022-11-15T16:45:33;5.30;;;2.40;;